< < Back
Terminal Aerodrome Forecast


Current Version              Previous Versions:   1  2  3  4  5  6  7  8  9  

Terminal Aerodrome Forecast

009
FTUS42 KMLB 261736
TAFMCO
TAF
KMCO 261736Z 2618/2718 06006KT P6SM SCT040 SCT080 BKN250
     FM270100 VRB02KT P6SM BKN250
     FM271500 VRB04KT P6SM SCT030 SCT060 BKN250=



Latest METAR

663
SAUS70 KWBC 262200 RRJ
MTRMCO
METAR KMCO 262153Z 19006KT 10SM FEW040 SCT080 BKN120 BKN250 24/22 A3008
RMK AO2 RAE27 TSE49 SLP184 TS DSIPTD P0027 T02440217


USA.gov is the U.S. government's official web portal to all federal, state and local government web resources and services.